메인 페이지
METAR-TAF:

METAR-TAF

공항 :

이디르, 터키

위도: 39-58-36N, 경도: 43-52-36E, 고도: 945m

현재 날씨관측

예보는 47분 전, 10:50시(UTC)에 발표되었습니다.
15kt남서풍과 서북서풍을 오가는
온도 29°C
습도 11%
기압 1016 hPa
시정 10km 이상
고도 4000ft 상공 구름 보통
고도 10000ft 상공 구름 보통

METAR: LTCT 051050Z 27015KT 220V300 9999 SCT040 SCT100 29/M04 Q1016

시각: 14:37 (11:37 UTC)

예보

예보는 57분 전, 10:40시(UTC)에 발표되었습니다.
예보 대상 시간: 05일 12시부터 05일 21시까지 (UTC)
14kt
시정 10km 이상
고도 4000ft 상공 구름 보통
고도 10000ft 상공 구름 보통
전환 중
05일 15시부터 05일 17시까지 (UTC)
여러 방향의 바람 2kt
전환 중
05일 18시부터 05일 20시까지 (UTC)
시정 10km 이상
1500m 미만 상공 구름 및 적란운 없음

TAF: LTCT 051040Z 0512/0521 26014KT 9999 SCT040 SCT100 BECMG 0515/0517 VRB02KT BECMG 0518/0520 CAVOK

4,000개 이상의 공항 관측 자료 및 예보 (METAR 및 TAF 보고).

지도상에서 검색 가능한 기상관측소가 노란 점과 빨간 점으로 표시되어 있습니다.

기상관측소 명을 보려면 표시 위로 마우스를 이동하세요.

날씨 관측과 예보를 보려면 클릭하세요.

지도 변경 : 확대하려면 엑스 표시가 있는 녹색 버튼, 축소하려면 빼기 표시가 있는 녹색 버튼, 다음 페이지의 지도를 보려면 녹색 화살표를 클릭하세요.


METAR-TAF: